createdAt,value
2018-07-16T00:00:31.845Z,19.40
2018-07-16T00:03:01.302Z,19.30
2018-07-16T00:05:30.581Z,19.30
2018-07-16T00:07:59.932Z,19.20
2018-07-16T00:10:29.417Z,19.30
2018-07-16T00:12:58.679Z,19.30
2018-07-16T00:15:28.610Z,19.20
2018-07-16T00:17:57.899Z,19.20
2018-07-16T00:20:27.105Z,19.20
2018-07-16T00:22:56.602Z,19.10
2018-07-16T00:25:26.515Z,19.10
2018-07-16T00:27:55.899Z,19.00
2018-07-16T00:30:25.065Z,19.00
2018-07-16T00:32:54.197Z,19.00
2018-07-16T00:35:23.417Z,18.90
2018-07-16T00:37:52.695Z,18.90
2018-07-16T00:40:21.921Z,18.90
2018-07-16T00:42:51.461Z,18.80
2018-07-16T00:45:20.637Z,18.70
2018-07-16T00:47:49.791Z,18.70
2018-07-16T00:50:19.080Z,18.60
2018-07-16T00:52:48.152Z,18.60
2018-07-16T00:55:17.430Z,18.50
2018-07-16T00:57:46.711Z,18.50
2018-07-16T01:00:15.940Z,18.40
2018-07-16T01:02:45.286Z,18.40
2018-07-16T01:05:14.762Z,18.40
2018-07-16T01:07:43.828Z,18.40
2018-07-16T01:10:13.217Z,18.40
2018-07-16T01:12:42.382Z,18.30
2018-07-16T01:15:12.140Z,18.20
2018-07-16T01:17:41.309Z,18.10
2018-07-16T01:20:10.576Z,18.10
2018-07-16T01:22:39.654Z,18.00
2018-07-16T01:25:08.842Z,18.00
2018-07-16T01:27:38.333Z,18.00
2018-07-16T01:30:07.537Z,17.90
2018-07-16T01:32:37.542Z,17.90
2018-07-16T01:35:06.710Z,17.80
2018-07-16T01:37:36.042Z,17.80
2018-07-16T01:40:05.193Z,17.80
2018-07-16T01:42:34.350Z,17.80
2018-07-16T01:45:04.637Z,17.80
2018-07-16T01:47:33.815Z,17.70
2018-07-16T01:52:32.215Z,17.60
2018-07-16T01:55:01.462Z,17.60
2018-07-16T01:57:30.920Z,17.50
2018-07-16T02:00:00.276Z,17.40
2018-07-16T02:02:29.479Z,17.30
2018-07-16T02:04:58.589Z,17.30
2018-07-16T02:07:27.905Z,17.20
2018-07-16T02:09:57.092Z,17.20
2018-07-16T02:12:26.419Z,17.10
2018-07-16T02:14:55.543Z,17.10
2018-07-16T02:17:24.727Z,17.10
2018-07-16T02:19:54.018Z,17.10
2018-07-16T02:22:23.178Z,17.10
2018-07-16T02:24:52.726Z,17.10
2018-07-16T02:27:22.023Z,17.00
2018-07-16T02:32:20.007Z,17.00
2018-07-16T02:37:17.934Z,16.80
2018-07-16T02:39:47.296Z,16.80
2018-07-16T02:42:16.602Z,16.70
2018-07-16T02:44:45.882Z,16.70
2018-07-16T02:47:15.755Z,16.60
2018-07-16T02:49:45.100Z,16.60
2018-07-16T02:52:14.205Z,16.60
2018-07-16T02:54:43.503Z,16.50
2018-07-16T02:57:13.429Z,16.40
2018-07-16T02:59:42.590Z,16.50
2018-07-16T03:02:12.732Z,16.40
2018-07-16T03:04:43.233Z,16.40
2018-07-16T03:07:12.671Z,16.40
2018-07-16T03:09:41.768Z,16.30
2018-07-16T03:12:11.067Z,16.20
2018-07-16T03:14:40.478Z,16.20
2018-07-16T03:17:09.744Z,16.20
2018-07-16T03:19:39.465Z,16.10
2018-07-16T03:22:08.847Z,16.10
2018-07-16T03:24:38.352Z,16.00
2018-07-16T03:27:08.290Z,15.90
2018-07-16T03:29:37.436Z,16.00
2018-07-16T03:32:06.995Z,15.90
2018-07-16T03:34:36.713Z,15.90
2018-07-16T03:37:05.926Z,15.80
2018-07-16T03:39:35.110Z,15.80
2018-07-16T03:42:04.320Z,15.80
2018-07-16T03:44:33.486Z,15.80
2018-07-16T03:47:02.667Z,15.80
2018-07-16T03:49:32.046Z,15.80
2018-07-16T03:52:01.179Z,15.80
2018-07-16T03:54:30.445Z,15.80
2018-07-16T03:57:00.216Z,15.90
2018-07-16T03:59:29.415Z,15.90
2018-07-16T04:01:58.836Z,16.00
2018-07-16T04:04:27.904Z,16.00
2018-07-16T04:06:57.753Z,16.00
2018-07-16T04:09:26.794Z,16.10
2018-07-16T04:11:55.902Z,16.20
2018-07-16T04:14:25.145Z,16.20
2018-07-16T04:16:54.558Z,16.30
2018-07-16T04:19:24.451Z,16.30
2018-07-16T04:21:53.619Z,16.30
2018-07-16T04:24:22.737Z,16.30
2018-07-16T04:26:51.912Z,16.30
2018-07-16T04:29:21.407Z,16.20
2018-07-16T04:31:50.721Z,16.20
2018-07-16T04:34:19.903Z,16.30
2018-07-16T04:36:49.816Z,16.30
2018-07-16T04:39:19.036Z,16.30
2018-07-16T04:41:48.279Z,16.30
2018-07-16T04:44:17.498Z,16.40
2018-07-16T04:46:46.564Z,16.50
2018-07-16T04:49:15.941Z,16.50
2018-07-16T04:51:45.753Z,16.60
2018-07-16T04:54:14.878Z,16.70
2018-07-16T04:56:44.136Z,16.70
2018-07-16T04:59:13.195Z,16.80
2018-07-16T05:01:42.445Z,16.80
2018-07-16T05:04:11.777Z,16.90
2018-07-16T05:06:40.861Z,17.00
2018-07-16T05:09:09.916Z,17.10
2018-07-16T05:11:39.269Z,17.20
2018-07-16T05:14:08.423Z,17.20
2018-07-16T05:16:37.591Z,17.30
2018-07-16T05:19:06.718Z,17.30
2018-07-16T05:21:35.948Z,17.50
2018-07-16T05:24:05.971Z,17.50
2018-07-16T05:26:41.546Z,17.70
2018-07-16T05:29:10.656Z,17.80
2018-07-16T05:31:39.824Z,17.90
2018-07-16T05:34:09.010Z,18.10
2018-07-16T05:36:38.826Z,18.20
2018-07-16T05:39:08.136Z,18.40
2018-07-16T05:41:37.304Z,18.60
2018-07-16T05:46:35.140Z,18.80
2018-07-16T05:49:04.435Z,18.80
2018-07-16T05:51:33.661Z,18.90
2018-07-16T05:54:02.831Z,19.00
2018-07-16T05:56:32.354Z,19.10
2018-07-16T05:59:01.659Z,19.20
2018-07-16T06:01:31.465Z,19.30
2018-07-16T06:04:00.676Z,19.40
2018-07-16T06:06:30.283Z,19.50
2018-07-16T06:08:59.578Z,19.60
2018-07-16T06:11:28.778Z,19.70
2018-07-16T06:13:57.961Z,19.80
2018-07-16T06:16:27.064Z,19.90
2018-07-16T06:18:56.664Z,20.00
2018-07-16T06:21:25.989Z,20.20
2018-07-16T06:23:55.138Z,20.30
2018-07-16T06:26:24.348Z,20.40
2018-07-16T06:28:54.199Z,20.40
2018-07-16T06:31:24.354Z,20.50
2018-07-16T06:36:22.421Z,20.70
2018-07-16T06:38:51.636Z,20.80
2018-07-16T06:41:21.185Z,21.00
2018-07-16T06:43:50.092Z,21.10
2018-07-16T06:46:19.562Z,21.20
2018-07-16T06:48:49.426Z,21.30
2018-07-16T06:51:18.707Z,21.40
2018-07-16T06:53:48.029Z,21.50
2018-07-16T06:56:17.281Z,21.60
2018-07-16T06:58:47.041Z,21.80
2018-07-16T07:01:16.430Z,21.90
2018-07-16T07:03:45.597Z,22.00
2018-07-16T07:06:15.435Z,22.10
2018-07-16T07:08:45.144Z,22.20
2018-07-16T07:11:14.593Z,22.30
2018-07-16T07:13:43.900Z,22.50
2018-07-16T07:16:13.014Z,22.60
2018-07-16T07:18:42.257Z,22.70
2018-07-16T07:21:11.692Z,22.90
2018-07-16T07:23:41.019Z,23.00
2018-07-16T07:26:10.674Z,23.20
2018-07-16T07:28:39.981Z,23.30
2018-07-16T07:31:09.152Z,23.50
2018-07-16T07:33:38.281Z,23.60
2018-07-16T07:36:07.433Z,23.80
2018-07-16T07:38:36.724Z,23.90
2018-07-16T07:41:05.926Z,24.00
2018-07-16T07:43:35.738Z,24.10
2018-07-16T07:46:05.498Z,24.30
2018-07-16T07:48:34.710Z,24.40
2018-07-16T07:51:03.970Z,24.50
2018-07-16T07:53:33.365Z,24.70
2018-07-16T07:56:02.725Z,24.80
2018-07-16T07:58:31.976Z,24.90
2018-07-16T08:01:01.401Z,25.00
2018-07-16T08:03:30.550Z,25.10
2018-07-16T08:06:06.269Z,25.20
2018-07-16T08:08:37.196Z,25.30
2018-07-16T08:11:07.081Z,25.50
2018-07-16T08:13:36.335Z,25.60
2018-07-16T08:16:05.488Z,25.70
2018-07-16T08:18:34.701Z,25.90
2018-07-16T08:21:10.420Z,26.00
2018-07-16T08:23:40.028Z,26.10
2018-07-16T08:26:09.224Z,26.30
2018-07-16T08:28:38.416Z,26.30
2018-07-16T08:31:07.647Z,26.40
2018-07-16T08:33:37.299Z,26.50
2018-07-16T08:36:06.459Z,26.60
2018-07-16T08:38:35.664Z,26.60
2018-07-16T08:41:04.828Z,26.70
2018-07-16T08:43:34.647Z,26.80
2018-07-16T08:46:04.042Z,27.00
2018-07-16T08:48:33.462Z,27.00
2018-07-16T08:51:02.535Z,27.10
2018-07-16T08:53:31.719Z,27.10
2018-07-16T08:56:00.905Z,27.20
2018-07-16T08:58:30.023Z,27.20
2018-07-16T09:00:59.299Z,27.30
2018-07-16T09:03:28.652Z,27.40
2018-07-16T09:06:04.168Z,27.40
2018-07-16T09:08:34.330Z,27.50
2018-07-16T09:11:03.672Z,27.50
2018-07-16T09:13:32.983Z,27.50
2018-07-16T09:16:02.246Z,27.50
2018-07-16T09:18:32.128Z,27.60
2018-07-16T09:21:01.260Z,27.70
2018-07-16T09:23:30.619Z,27.80
2018-07-16T09:25:59.727Z,27.90
2018-07-16T09:28:28.907Z,28.00
2018-07-16T09:30:58.199Z,28.10
2018-07-16T09:33:27.268Z,28.20
2018-07-16T09:35:56.397Z,28.30
2018-07-16T09:38:25.614Z,28.40
2018-07-16T09:40:54.810Z,28.50
2018-07-16T09:43:23.899Z,28.50
2018-07-16T09:45:53.196Z,28.50
2018-07-16T09:48:22.364Z,28.40
2018-07-16T09:50:51.570Z,28.30
2018-07-16T09:53:20.696Z,28.40
2018-07-16T09:55:49.784Z,28.50
2018-07-16T09:58:18.974Z,28.50
2018-07-16T10:00:53.336Z,28.60
2018-07-16T10:03:22.493Z,28.60
2018-07-16T10:05:52.078Z,28.70
2018-07-16T10:08:21.464Z,28.70
2018-07-16T10:10:50.908Z,28.80
2018-07-16T10:13:20.100Z,28.90
2018-07-16T10:15:49.319Z,29.00
2018-07-16T10:18:18.504Z,29.10
2018-07-16T10:20:47.701Z,29.20
2018-07-16T10:23:16.888Z,29.30
2018-07-16T10:25:46.925Z,29.40
2018-07-16T10:28:16.112Z,29.60
2018-07-16T10:30:45.364Z,29.70
2018-07-16T10:33:14.511Z,29.80
2018-07-16T10:35:44.819Z,30.00
2018-07-16T10:38:13.992Z,30.10
2018-07-16T10:40:43.209Z,30.10
2018-07-16T10:43:12.469Z,30.30
2018-07-16T10:45:41.641Z,30.60
2018-07-16T10:48:10.898Z,30.40
2018-07-16T10:50:40.089Z,30.30
2018-07-16T10:53:09.264Z,30.30
2018-07-16T10:55:38.526Z,30.30
2018-07-16T10:58:07.713Z,30.40
2018-07-16T11:00:36.940Z,30.40
2018-07-16T11:03:06.219Z,30.50
2018-07-16T11:05:35.496Z,30.40
2018-07-16T11:08:04.710Z,30.30
2018-07-16T11:10:34.150Z,30.20
2018-07-16T11:13:04.020Z,30.00
2018-07-16T11:15:33.371Z,30.00
2018-07-16T11:18:02.545Z,29.90
2018-07-16T11:20:31.777Z,29.90
2018-07-16T11:23:01.038Z,30.10
2018-07-16T11:25:30.262Z,30.50
2018-07-16T11:27:59.426Z,31.00
2018-07-16T11:30:28.673Z,31.40
2018-07-16T11:32:57.925Z,31.70
2018-07-16T11:35:27.164Z,31.90
2018-07-16T11:40:25.280Z,32.50
2018-07-16T11:42:54.417Z,32.70
2018-07-16T11:45:23.615Z,32.80
2018-07-16T11:47:52.802Z,33.00
2018-07-16T11:50:22.112Z,33.00
2018-07-16T11:52:51.286Z,33.20
2018-07-16T11:55:20.926Z,33.40
2018-07-16T11:57:50.365Z,33.60
2018-07-16T12:02:48.559Z,33.40
2018-07-16T12:05:17.872Z,33.30
2018-07-16T12:07:46.944Z,33.10
2018-07-16T12:10:16.211Z,33.00
2018-07-16T12:12:45.515Z,32.90
2018-07-16T12:15:14.674Z,32.80
2018-07-16T12:17:43.984Z,32.60
2018-07-16T12:20:13.142Z,32.20
2018-07-16T12:22:43.021Z,31.70
2018-07-16T12:25:12.191Z,31.50
2018-07-16T12:27:41.392Z,31.50
2018-07-16T12:30:10.587Z,31.60
2018-07-16T12:32:40.008Z,31.70
2018-07-16T12:35:09.204Z,32.00
2018-07-16T12:37:38.701Z,32.20
2018-07-16T12:40:07.852Z,32.20
2018-07-16T12:42:37.330Z,32.00
2018-07-16T12:45:06.957Z,31.90
2018-07-16T12:47:36.139Z,31.70
2018-07-16T12:52:34.433Z,31.80
2018-07-16T12:55:03.928Z,31.90
2018-07-16T12:57:33.272Z,32.20
2018-07-16T13:00:02.525Z,32.50
2018-07-16T13:02:31.825Z,32.90
2018-07-16T13:05:00.961Z,33.10
2018-07-16T13:07:30.126Z,33.30
2018-07-16T13:10:00.479Z,33.30
2018-07-16T13:12:29.764Z,33.30
2018-07-16T13:14:59.107Z,33.40
2018-07-16T13:17:28.932Z,33.70
2018-07-16T13:19:58.142Z,33.60
2018-07-16T13:22:27.357Z,33.50
2018-07-16T13:24:57.063Z,33.40
2018-07-16T13:27:27.074Z,33.70
2018-07-16T13:29:56.315Z,34.00
2018-07-16T13:32:26.083Z,34.50
2018-07-16T13:34:55.518Z,34.70
2018-07-16T13:37:24.585Z,34.70
2018-07-16T13:39:54.529Z,34.70
2018-07-16T13:42:24.009Z,34.60
2018-07-16T13:44:53.099Z,34.50
2018-07-16T13:47:23.121Z,34.40
2018-07-16T13:49:52.313Z,34.30
2018-07-16T13:52:21.806Z,34.30
2018-07-16T13:54:51.140Z,34.20
2018-07-16T13:57:20.220Z,34.00
2018-07-16T13:59:49.286Z,33.70
2018-07-16T14:02:18.455Z,33.50
2018-07-16T14:04:47.706Z,33.30
2018-07-16T14:07:17.312Z,33.20
2018-07-16T14:09:46.548Z,33.40
2018-07-16T14:12:15.730Z,33.50
2018-07-16T14:14:44.790Z,33.60
2018-07-16T14:17:13.998Z,33.80
2018-07-16T14:19:43.041Z,33.90
2018-07-16T14:22:12.257Z,33.70
2018-07-16T14:24:41.354Z,33.60
2018-07-16T14:27:10.505Z,33.40
2018-07-16T14:29:39.648Z,33.40
2018-07-16T14:32:08.875Z,33.40
2018-07-16T14:34:38.135Z,33.50
2018-07-16T14:37:07.503Z,33.40
2018-07-16T14:39:36.748Z,33.40
2018-07-16T14:42:06.064Z,33.40
2018-07-16T14:44:35.295Z,33.40
2018-07-16T14:47:05.376Z,33.60
2018-07-16T14:49:34.686Z,33.80
2018-07-16T14:52:03.809Z,33.80
2018-07-16T14:54:33.144Z,34.00
2018-07-16T14:57:02.211Z,34.10
2018-07-16T14:59:34.149Z,34.30
2018-07-16T15:02:03.498Z,34.60
2018-07-16T15:04:32.652Z,35.30
2018-07-16T15:07:01.886Z,36.10
2018-07-16T15:09:31.053Z,36.60
2018-07-16T15:12:00.210Z,36.80
2018-07-16T15:14:29.443Z,37.00
2018-07-16T15:16:58.543Z,36.90
2018-07-16T15:19:27.686Z,36.80
2018-07-16T15:21:57.036Z,37.10
2018-07-16T15:24:26.094Z,37.60
2018-07-16T15:26:55.147Z,37.90
2018-07-16T15:29:24.573Z,38.00
2018-07-16T15:31:53.678Z,38.20
2018-07-16T15:34:23.030Z,38.00
2018-07-16T15:36:52.229Z,38.10
2018-07-16T15:39:21.452Z,38.30
2018-07-16T15:44:19.196Z,38.60
2018-07-16T15:46:48.345Z,38.70
2018-07-16T15:51:46.287Z,39.00
2018-07-16T15:54:15.519Z,39.50
2018-07-16T15:56:44.606Z,39.60
2018-07-16T15:59:13.889Z,39.60
2018-07-16T16:01:43.171Z,39.60
2018-07-16T16:04:12.620Z,39.70
2018-07-16T16:06:41.860Z,40.10
2018-07-16T16:09:11.305Z,40.60
2018-07-16T16:11:40.392Z,41.10
2018-07-16T16:14:09.635Z,41.00
2018-07-16T16:16:38.890Z,40.70
2018-07-16T16:19:08.136Z,40.60
2018-07-16T16:21:37.571Z,40.30
2018-07-16T16:24:06.915Z,40.00
2018-07-16T16:26:36.117Z,39.90
2018-07-16T16:29:05.529Z,39.80
2018-07-16T16:31:35.008Z,40.10
2018-07-16T16:34:04.773Z,39.80
2018-07-16T16:36:34.004Z,39.10
2018-07-16T16:39:03.829Z,38.30
2018-07-16T16:41:33.069Z,37.50
2018-07-16T16:44:05.786Z,36.60
2018-07-16T16:46:35.114Z,35.70
2018-07-16T16:49:04.393Z,34.90
2018-07-16T16:51:33.626Z,34.30
2018-07-16T16:54:02.720Z,33.70
2018-07-16T16:56:31.812Z,33.30
2018-07-16T16:59:01.078Z,32.90
2018-07-16T17:01:30.547Z,32.70
2018-07-16T17:03:59.943Z,32.40
2018-07-16T17:06:29.524Z,32.10
2018-07-16T17:08:58.971Z,31.30
2018-07-16T17:11:28.225Z,30.20
2018-07-16T17:13:57.736Z,29.10
2018-07-16T17:16:27.207Z,28.00
2018-07-16T17:18:56.655Z,27.10
2018-07-16T17:23:54.660Z,26.50
2018-07-16T17:26:23.799Z,26.40
2018-07-16T17:28:53.155Z,26.20
2018-07-16T17:31:22.674Z,26.10
2018-07-16T17:33:52.068Z,26.00
2018-07-16T17:36:21.480Z,25.90
2018-07-16T17:38:50.749Z,25.90
2018-07-16T17:41:20.493Z,25.80
2018-07-16T17:43:49.990Z,25.70
2018-07-16T17:46:19.391Z,25.50
2018-07-16T17:48:48.701Z,25.40
2018-07-16T17:51:18.478Z,25.40
2018-07-16T17:53:47.565Z,25.30
2018-07-16T17:56:16.675Z,25.20
2018-07-16T17:58:46.760Z,24.90
2018-07-16T18:03:44.770Z,24.80
2018-07-16T18:06:14.265Z,24.70
2018-07-16T18:08:44.305Z,24.60
2018-07-16T18:11:13.625Z,24.30
2018-07-16T18:13:43.312Z,24.30
2018-07-16T18:16:12.597Z,24.30
2018-07-16T18:18:42.105Z,24.20
2018-07-16T18:21:11.383Z,24.20
2018-07-16T18:23:40.812Z,24.10
2018-07-16T18:26:09.921Z,23.90
2018-07-16T18:28:39.123Z,23.90
2018-07-16T18:31:08.263Z,23.80
2018-07-16T18:33:38.136Z,23.80
2018-07-16T18:36:07.359Z,23.80
2018-07-16T18:38:36.513Z,23.80
2018-07-16T18:41:05.926Z,23.90
2018-07-16T18:46:03.871Z,23.80
2018-07-16T18:48:33.197Z,23.70
2018-07-16T18:51:02.440Z,23.70
2018-07-16T18:53:32.022Z,23.60
2018-07-16T18:56:01.256Z,23.60
2018-07-16T18:58:30.436Z,23.50
2018-07-16T19:00:59.598Z,23.40
2018-07-16T19:03:28.889Z,23.40
2018-07-16T19:05:58.437Z,23.40
2018-07-16T19:08:28.455Z,23.30
2018-07-16T19:10:57.698Z,23.30
2018-07-16T19:13:27.342Z,23.20
2018-07-16T19:15:56.534Z,23.20
2018-07-16T19:18:25.693Z,23.20
2018-07-16T19:20:54.934Z,23.20
2018-07-16T19:23:24.211Z,23.20
2018-07-16T19:25:53.435Z,23.20
2018-07-16T19:28:22.674Z,23.10
2018-07-16T19:30:51.931Z,22.70
2018-07-16T19:33:21.446Z,22.40
2018-07-16T19:35:50.874Z,21.90
2018-07-16T19:38:20.164Z,21.40
2018-07-16T19:40:49.415Z,21.10
2018-07-16T19:43:19.355Z,20.90
2018-07-16T19:45:48.695Z,20.80
2018-07-16T19:48:17.964Z,20.90
2018-07-16T19:50:47.258Z,21.00
2018-07-16T19:53:16.685Z,21.10
2018-07-16T19:55:45.826Z,21.20
2018-07-16T19:58:15.276Z,21.40
2018-07-16T20:00:44.637Z,21.50
2018-07-16T20:03:13.730Z,21.60
2018-07-16T20:05:42.928Z,21.70
2018-07-16T20:08:12.277Z,21.80
2018-07-16T20:10:41.526Z,21.80
2018-07-16T20:13:10.689Z,21.90
2018-07-16T20:15:40.104Z,21.90
2018-07-16T20:18:09.498Z,21.90
2018-07-16T20:20:49.837Z,22.00
2018-07-16T20:23:19.195Z,22.00
2018-07-16T20:25:48.732Z,22.00
2018-07-16T20:28:18.409Z,22.10
2018-07-16T20:30:48.441Z,22.10
2018-07-16T20:33:17.967Z,22.20
2018-07-16T20:35:47.853Z,22.10
2018-07-16T20:38:17.472Z,22.10
2018-07-16T20:40:47.072Z,22.00
2018-07-16T20:43:16.266Z,21.90
2018-07-16T20:45:45.539Z,22.00
2018-07-16T20:48:15.356Z,22.00
2018-07-16T20:50:44.442Z,22.10
2018-07-16T20:53:13.796Z,22.20
2018-07-16T20:55:42.927Z,22.20
2018-07-16T20:58:12.178Z,22.20
2018-07-16T21:00:41.257Z,22.20
2018-07-16T21:03:10.352Z,22.20
2018-07-16T21:05:39.603Z,22.20
2018-07-16T21:08:09.036Z,22.20
2018-07-16T21:10:38.353Z,22.20
2018-07-16T21:13:07.588Z,22.30
2018-07-16T21:15:36.877Z,22.30
2018-07-16T21:18:06.036Z,22.40
2018-07-16T21:20:35.390Z,22.40
2018-07-16T21:23:04.781Z,22.40
2018-07-16T21:25:34.042Z,22.40
2018-07-16T21:28:03.803Z,22.40
2018-07-16T21:33:02.371Z,22.30
2018-07-16T21:35:31.882Z,22.40
2018-07-16T21:38:01.087Z,22.40
2018-07-16T21:40:30.458Z,22.30
2018-07-16T21:42:59.625Z,22.20
2018-07-16T21:45:28.760Z,22.00
2018-07-16T21:47:57.866Z,22.00
2018-07-16T21:50:27.230Z,21.80
2018-07-16T21:52:56.424Z,21.70
2018-07-16T21:55:25.721Z,21.70
2018-07-16T21:57:57.841Z,21.50
2018-07-16T22:00:29.001Z,21.40
2018-07-16T22:02:59.313Z,21.30
2018-07-16T22:05:29.135Z,21.20
2018-07-16T22:07:59.701Z,21.20
2018-07-16T22:10:28.840Z,21.20
2018-07-16T22:12:58.753Z,21.10
2018-07-16T22:15:29.304Z,21.10
2018-07-16T22:20:28.411Z,21.10
2018-07-16T22:22:57.821Z,21.10
2018-07-16T22:25:27.619Z,21.10
2018-07-16T22:27:57.566Z,21.20
2018-07-16T22:30:26.823Z,21.10
2018-07-16T22:32:56.026Z,21.10
2018-07-16T22:35:25.325Z,21.00
2018-07-16T22:37:54.451Z,20.90
2018-07-16T22:40:23.704Z,20.90
2018-07-16T22:42:52.956Z,20.80
2018-07-16T22:45:22.137Z,20.80
2018-07-16T22:47:51.181Z,20.80
2018-07-16T22:50:20.352Z,20.70
2018-07-16T22:52:49.412Z,20.70
2018-07-16T22:55:18.726Z,20.60
2018-07-16T22:57:47.907Z,20.60
2018-07-16T23:00:17.177Z,20.50
2018-07-16T23:02:46.337Z,20.50
2018-07-16T23:05:15.546Z,20.40
2018-07-16T23:07:47.606Z,20.40
2018-07-16T23:10:16.783Z,20.40
2018-07-16T23:12:46.677Z,20.30
2018-07-16T23:15:16.659Z,20.30
2018-07-16T23:17:46.140Z,20.20
2018-07-16T23:20:15.236Z,20.20
2018-07-16T23:22:55.243Z,20.10
2018-07-16T23:25:24.480Z,20.10
2018-07-16T23:27:53.565Z,20.00
2018-07-16T23:30:23.479Z,20.00
2018-07-16T23:32:52.663Z,19.90
2018-07-16T23:35:22.989Z,19.80
2018-07-16T23:37:52.126Z,19.80
2018-07-16T23:40:21.273Z,19.70
2018-07-16T23:42:50.328Z,19.60
2018-07-16T23:45:19.758Z,19.60
2018-07-16T23:47:48.990Z,19.60
2018-07-16T23:52:47.124Z,19.50
2018-07-16T23:55:16.892Z,19.50
